sensor_id;sensor_type;location;lat;lon;timestamp;P1;durP1;ratioP1;P2;durP2;ratioP2
57247;SDS011;55809;46.618;10.764;2023-08-12T00:01:45;2.55;;;1.70;;
57247;SDS011;55809;46.618;10.764;2023-08-12T00:04:13;3.30;;;1.58;;
57247;SDS011;55809;46.618;10.764;2023-08-12T00:06:41;3.63;;;2.00;;
57247;SDS011;55809;46.618;10.764;2023-08-12T00:09:09;3.85;;;1.90;;
57247;SDS011;55809;46.618;10.764;2023-08-12T00:11:37;2.67;;;1.60;;
57247;SDS011;55809;46.618;10.764;2023-08-12T00:14:04;4.65;;;2.17;;
57247;SDS011;55809;46.618;10.764;2023-08-12T00:16:31;2.95;;;1.80;;
57247;SDS011;55809;46.618;10.764;2023-08-12T00:18:58;2.80;;;1.45;;
57247;SDS011;55809;46.618;10.764;2023-08-12T00:21:27;4.18;;;2.15;;
57247;SDS011;55809;46.618;10.764;2023-08-12T00:23:54;4.68;;;2.15;;
57247;SDS011;55809;46.618;10.764;2023-08-12T00:26:21;3.38;;;1.50;;
57247;SDS011;55809;46.618;10.764;2023-08-12T00:28:48;3.38;;;1.67;;
57247;SDS011;55809;46.618;10.764;2023-08-12T00:31:16;2.72;;;1.63;;
57247;SDS011;55809;46.618;10.764;2023-08-12T00:33:43;3.63;;;1.55;;
57247;SDS011;55809;46.618;10.764;2023-08-12T00:36:10;5.32;;;1.80;;
57247;SDS011;55809;46.618;10.764;2023-08-12T00:38:39;2.58;;;1.30;;
57247;SDS011;55809;46.618;10.764;2023-08-12T00:41:06;3.33;;;1.60;;
57247;SDS011;55809;46.618;10.764;2023-08-12T00:43:33;3.13;;;1.60;;
57247;SDS011;55809;46.618;10.764;2023-08-12T00:46:00;3.63;;;1.73;;
57247;SDS011;55809;46.618;10.764;2023-08-12T00:48:27;3.97;;;1.55;;
57247;SDS011;55809;46.618;10.764;2023-08-12T00:50:54;2.85;;;1.52;;
57247;SDS011;55809;46.618;10.764;2023-08-12T00:53:21;2.88;;;1.70;;
57247;SDS011;55809;46.618;10.764;2023-08-12T00:55:50;3.08;;;1.63;;
57247;SDS011;55809;46.618;10.764;2023-08-12T00:58:17;3.30;;;1.63;;
57247;SDS011;55809;46.618;10.764;2023-08-12T01:00:45;2.67;;;1.42;;
57247;SDS011;55809;46.618;10.764;2023-08-12T01:03:13;2.72;;;1.40;;
57247;SDS011;55809;46.618;10.764;2023-08-12T01:05:40;4.28;;;1.48;;
57247;SDS011;55809;46.618;10.764;2023-08-12T01:08:07;3.92;;;1.48;;
57247;SDS011;55809;46.618;10.764;2023-08-12T01:10:35;3.40;;;1.70;;
57247;SDS011;55809;46.618;10.764;2023-08-12T01:13:11;2.63;;;1.53;;
57247;SDS011;55809;46.618;10.764;2023-08-12T01:15:46;3.25;;;1.67;;
57247;SDS011;55809;46.618;10.764;2023-08-12T01:18:17;4.28;;;1.83;;
57247;SDS011;55809;46.618;10.764;2023-08-12T01:20:51;4.93;;;1.77;;
57247;SDS011;55809;46.618;10.764;2023-08-12T01:23:20;3.80;;;1.63;;
57247;SDS011;55809;46.618;10.764;2023-08-12T01:25:47;3.42;;;1.67;;
57247;SDS011;55809;46.618;10.764;2023-08-12T01:28:14;3.75;;;1.90;;
57247;SDS011;55809;46.618;10.764;2023-08-12T01:30:43;5.10;;;1.83;;
57247;SDS011;55809;46.618;10.764;2023-08-12T01:33:17;2.53;;;1.40;;
57247;SDS011;55809;46.618;10.764;2023-08-12T01:35:50;2.97;;;1.42;;
57247;SDS011;55809;46.618;10.764;2023-08-12T01:38:27;3.72;;;1.75;;
57247;SDS011;55809;46.618;10.764;2023-08-12T01:40:57;2.88;;;1.55;;
57247;SDS011;55809;46.618;10.764;2023-08-12T01:43:26;4.55;;;2.15;;
57247;SDS011;55809;46.618;10.764;2023-08-12T01:45:54;2.53;;;1.50;;
57247;SDS011;55809;46.618;10.764;2023-08-12T01:48:21;3.33;;;1.40;;
57247;SDS011;55809;46.618;10.764;2023-08-12T01:50:49;4.07;;;1.92;;
57247;SDS011;55809;46.618;10.764;2023-08-12T01:53:16;5.88;;;1.75;;
57247;SDS011;55809;46.618;10.764;2023-08-12T01:55:44;3.25;;;1.63;;
57247;SDS011;55809;46.618;10.764;2023-08-12T01:58:12;2.80;;;1.73;;
57247;SDS011;55809;46.618;10.764;2023-08-12T02:00:39;3.85;;;1.27;;
57247;SDS011;55809;46.618;10.764;2023-08-12T02:03:06;3.35;;;1.58;;
57247;SDS011;55809;46.618;10.764;2023-08-12T02:05:33;3.60;;;1.60;;
57247;SDS011;55809;46.618;10.764;2023-08-12T02:08:02;3.95;;;1.30;;
57247;SDS011;55809;46.618;10.764;2023-08-12T02:10:29;2.95;;;1.60;;
57247;SDS011;55809;46.618;10.764;2023-08-12T02:12:59;2.15;;;1.20;;
57247;SDS011;55809;46.618;10.764;2023-08-12T02:15:26;3.92;;;1.90;;
57247;SDS011;55809;46.618;10.764;2023-08-12T02:17:53;3.13;;;1.67;;
57247;SDS011;55809;46.618;10.764;2023-08-12T02:20:20;5.35;;;1.75;;
57247;SDS011;55809;46.618;10.764;2023-08-12T02:22:47;2.63;;;1.77;;
57247;SDS011;55809;46.618;10.764;2023-08-12T02:25:14;2.55;;;1.45;;
57247;SDS011;55809;46.618;10.764;2023-08-12T02:27:41;3.60;;;1.80;;
57247;SDS011;55809;46.618;10.764;2023-08-12T02:30:11;2.85;;;1.55;;
57247;SDS011;55809;46.618;10.764;2023-08-12T02:32:38;2.55;;;1.52;;
57247;SDS011;55809;46.618;10.764;2023-08-12T02:35:08;2.65;;;1.42;;
57247;SDS011;55809;46.618;10.764;2023-08-12T02:37:35;4.28;;;2.00;;
57247;SDS011;55809;46.618;10.764;2023-08-12T02:40:03;3.30;;;1.80;;
57247;SDS011;55809;46.618;10.764;2023-08-12T02:42:31;2.67;;;1.60;;
57247;SDS011;55809;46.618;10.764;2023-08-12T02:44:58;4.70;;;2.20;;
57247;SDS011;55809;46.618;10.764;2023-08-12T02:47:27;4.10;;;2.10;;
57247;SDS011;55809;46.618;10.764;2023-08-12T02:49:54;3.65;;;2.00;;
57247;SDS011;55809;46.618;10.764;2023-08-12T02:52:21;2.80;;;1.40;;
57247;SDS011;55809;46.618;10.764;2023-08-12T02:54:48;3.63;;;1.77;;
57247;SDS011;55809;46.618;10.764;2023-08-12T02:57:16;2.90;;;1.70;;
57247;SDS011;55809;46.618;10.764;2023-08-12T02:59:43;4.40;;;2.10;;
57247;SDS011;55809;46.618;10.764;2023-08-12T03:02:10;2.88;;;1.48;;
57247;SDS011;55809;46.618;10.764;2023-08-12T03:04:38;3.75;;;2.08;;
57247;SDS011;55809;46.618;10.764;2023-08-12T03:07:05;3.28;;;1.60;;
57247;SDS011;55809;46.618;10.764;2023-08-12T03:09:32;3.92;;;1.40;;
57247;SDS011;55809;46.618;10.764;2023-08-12T03:11:59;3.42;;;1.67;;
57247;SDS011;55809;46.618;10.764;2023-08-12T03:14:28;2.75;;;1.50;;
57247;SDS011;55809;46.618;10.764;2023-08-12T03:16:56;4.32;;;2.08;;
57247;SDS011;55809;46.618;10.764;2023-08-12T03:19:23;4.00;;;1.80;;
57247;SDS011;55809;46.618;10.764;2023-08-12T03:21:52;3.25;;;1.83;;
57247;SDS011;55809;46.618;10.764;2023-08-12T03:24:19;3.45;;;1.65;;
57247;SDS011;55809;46.618;10.764;2023-08-12T03:26:46;3.92;;;1.80;;
57247;SDS011;55809;46.618;10.764;2023-08-12T03:29:13;2.88;;;1.60;;
57247;SDS011;55809;46.618;10.764;2023-08-12T03:31:40;4.60;;;1.90;;
57247;SDS011;55809;46.618;10.764;2023-08-12T03:34:07;4.18;;;1.90;;
57247;SDS011;55809;46.618;10.764;2023-08-12T03:36:34;2.75;;;1.50;;
57247;SDS011;55809;46.618;10.764;2023-08-12T03:39:03;4.30;;;1.92;;
57247;SDS011;55809;46.618;10.764;2023-08-12T03:41:31;2.88;;;1.55;;
57247;SDS011;55809;46.618;10.764;2023-08-12T03:43:58;2.80;;;1.58;;
57247;SDS011;55809;46.618;10.764;2023-08-12T03:46:25;8.13;;;2.42;;
57247;SDS011;55809;46.618;10.764;2023-08-12T03:48:52;3.47;;;1.98;;
57247;SDS011;55809;46.618;10.764;2023-08-12T03:51:19;3.55;;;1.85;;
57247;SDS011;55809;46.618;10.764;2023-08-12T03:53:47;2.88;;;1.35;;
57247;SDS011;55809;46.618;10.764;2023-08-12T03:56:15;3.08;;;1.67;;
57247;SDS011;55809;46.618;10.764;2023-08-12T03:58:42;4.07;;;2.10;;
57247;SDS011;55809;46.618;10.764;2023-08-12T04:01:10;2.72;;;1.63;;
57247;SDS011;55809;46.618;10.764;2023-08-12T04:03:37;4.20;;;2.08;;
57247;SDS011;55809;46.618;10.764;2023-08-12T04:06:04;4.75;;;2.15;;
57247;SDS011;55809;46.618;10.764;2023-08-12T04:08:31;3.00;;;1.73;;
57247;SDS011;55809;46.618;10.764;2023-08-12T04:10:58;2.53;;;1.40;;
57247;SDS011;55809;46.618;10.764;2023-08-12T04:13:27;5.47;;;2.13;;
57247;SDS011;55809;46.618;10.764;2023-08-12T04:15:54;3.65;;;2.03;;
57247;SDS011;55809;46.618;10.764;2023-08-12T04:18:24;2.35;;;1.45;;
57247;SDS011;55809;46.618;10.764;2023-08-12T04:20:51;2.97;;;1.88;;
57247;SDS011;55809;46.618;10.764;2023-08-12T04:23:19;4.05;;;2.00;;
57247;SDS011;55809;46.618;10.764;2023-08-12T04:25:47;7.40;;;1.83;;
57247;SDS011;55809;46.618;10.764;2023-08-12T04:28:15;3.25;;;2.03;;
57247;SDS011;55809;46.618;10.764;2023-08-12T04:30:46;4.43;;;1.80;;
57247;SDS011;55809;46.618;10.764;2023-08-12T04:33:13;7.18;;;1.80;;
57247;SDS011;55809;46.618;10.764;2023-08-12T04:35:41;5.07;;;1.90;;
57247;SDS011;55809;46.618;10.764;2023-08-12T04:38:08;3.13;;;1.95;;
57247;SDS011;55809;46.618;10.764;2023-08-12T04:40:37;3.45;;;1.67;;
57247;SDS011;55809;46.618;10.764;2023-08-12T04:43:04;4.72;;;2.05;;
57247;SDS011;55809;46.618;10.764;2023-08-12T04:45:31;3.10;;;1.77;;
57247;SDS011;55809;46.618;10.764;2023-08-12T04:48:00;2.63;;;1.70;;
57247;SDS011;55809;46.618;10.764;2023-08-12T04:50:29;3.80;;;1.70;;
57247;SDS011;55809;46.618;10.764;2023-08-12T04:52:56;2.60;;;1.48;;
57247;SDS011;55809;46.618;10.764;2023-08-12T04:55:24;4.40;;;1.95;;
57247;SDS011;55809;46.618;10.764;2023-08-12T04:57:52;4.53;;;2.05;;
57247;SDS011;55809;46.618;10.764;2023-08-12T05:00:19;5.07;;;2.00;;
57247;SDS011;55809;46.618;10.764;2023-08-12T05:02:47;3.97;;;1.90;;
57247;SDS011;55809;46.618;10.764;2023-08-12T05:05:16;2.78;;;1.70;;
57247;SDS011;55809;46.618;10.764;2023-08-12T05:07:43;3.78;;;1.92;;
57247;SDS011;55809;46.618;10.764;2023-08-12T05:10:14;3.10;;;1.83;;
57247;SDS011;55809;46.618;10.764;2023-08-12T05:12:41;3.40;;;1.60;;
57247;SDS011;55809;46.618;10.764;2023-08-12T05:15:09;3.42;;;1.90;;
57247;SDS011;55809;46.618;10.764;2023-08-12T05:17:36;3.45;;;1.83;;
57247;SDS011;55809;46.618;10.764;2023-08-12T05:20:04;3.42;;;2.03;;
57247;SDS011;55809;46.618;10.764;2023-08-12T05:22:33;2.70;;;1.70;;
57247;SDS011;55809;46.618;10.764;2023-08-12T05:25:01;3.65;;;2.03;;
57247;SDS011;55809;46.618;10.764;2023-08-12T05:27:28;3.63;;;1.83;;
57247;SDS011;55809;46.618;10.764;2023-08-12T05:29:55;3.75;;;1.80;;
57247;SDS011;55809;46.618;10.764;2023-08-12T05:32:22;4.00;;;1.92;;
57247;SDS011;55809;46.618;10.764;2023-08-12T05:34:49;3.13;;;1.80;;
57247;SDS011;55809;46.618;10.764;2023-08-12T05:37:17;3.30;;;1.80;;
57247;SDS011;55809;46.618;10.764;2023-08-12T05:39:45;3.38;;;1.63;;
57247;SDS011;55809;46.618;10.764;2023-08-12T05:42:12;3.00;;;1.60;;
57247;SDS011;55809;46.618;10.764;2023-08-12T05:44:40;3.05;;;1.90;;
57247;SDS011;55809;46.618;10.764;2023-08-12T05:47:07;3.13;;;1.90;;
57247;SDS011;55809;46.618;10.764;2023-08-12T05:49:34;3.53;;;1.73;;
57247;SDS011;55809;46.618;10.764;2023-08-12T05:52:02;3.83;;;1.98;;
57247;SDS011;55809;46.618;10.764;2023-08-12T05:54:29;2.88;;;1.80;;
57247;SDS011;55809;46.618;10.764;2023-08-12T05:56:58;3.88;;;2.03;;
57247;SDS011;55809;46.618;10.764;2023-08-12T05:59:25;3.22;;;1.75;;
57247;SDS011;55809;46.618;10.764;2023-08-12T06:01:53;2.90;;;1.73;;
57247;SDS011;55809;46.618;10.764;2023-08-12T06:04:20;3.03;;;1.70;;
57247;SDS011;55809;46.618;10.764;2023-08-12T06:06:47;2.85;;;1.65;;
57247;SDS011;55809;46.618;10.764;2023-08-12T06:09:14;3.53;;;1.83;;
57247;SDS011;55809;46.618;10.764;2023-08-12T06:11:41;3.80;;;1.80;;
57247;SDS011;55809;46.618;10.764;2023-08-12T06:14:10;4.55;;;2.17;;
57247;SDS011;55809;46.618;10.764;2023-08-12T06:16:37;3.13;;;1.63;;
57247;SDS011;55809;46.618;10.764;2023-08-12T06:19:04;3.13;;;1.60;;
57247;SDS011;55809;46.618;10.764;2023-08-12T06:21:31;3.80;;;1.90;;
57247;SDS011;55809;46.618;10.764;2023-08-12T06:23:58;3.90;;;2.17;;
57247;SDS011;55809;46.618;10.764;2023-08-12T06:26:25;3.97;;;2.00;;
57247;SDS011;55809;46.618;10.764;2023-08-12T06:28:52;2.58;;;1.52;;
57247;SDS011;55809;46.618;10.764;2023-08-12T06:31:21;7.68;;;2.10;;
57247;SDS011;55809;46.618;10.764;2023-08-12T06:33:48;4.50;;;1.95;;
57247;SDS011;55809;46.618;10.764;2023-08-12T06:36:15;3.17;;;1.85;;
57247;SDS011;55809;46.618;10.764;2023-08-12T06:38:41;4.32;;;2.08;;
57247;SDS011;55809;46.618;10.764;2023-08-12T06:41:09;4.68;;;2.05;;
57247;SDS011;55809;46.618;10.764;2023-08-12T06:43:36;3.63;;;2.05;;
57247;SDS011;55809;46.618;10.764;2023-08-12T06:46:03;3.35;;;1.85;;
57247;SDS011;55809;46.618;10.764;2023-08-12T06:48:31;3.67;;;1.98;;
57247;SDS011;55809;46.618;10.764;2023-08-12T06:50:58;3.60;;;1.90;;
57247;SDS011;55809;46.618;10.764;2023-08-12T06:53:26;4.10;;;2.17;;
57247;SDS011;55809;46.618;10.764;2023-08-12T06:55:53;3.45;;;1.98;;
57247;SDS011;55809;46.618;10.764;2023-08-12T06:58:20;3.15;;;1.75;;
57247;SDS011;55809;46.618;10.764;2023-08-12T07:00:47;3.55;;;1.95;;
57247;SDS011;55809;46.618;10.764;2023-08-12T07:03:14;4.13;;;2.00;;
57247;SDS011;55809;46.618;10.764;2023-08-12T07:05:43;3.53;;;1.98;;
57247;SDS011;55809;46.618;10.764;2023-08-12T07:08:10;2.88;;;1.67;;
57247;SDS011;55809;46.618;10.764;2023-08-12T07:10:37;3.85;;;1.98;;
57247;SDS011;55809;46.618;10.764;2023-08-12T07:13:05;5.35;;;2.03;;
57247;SDS011;55809;46.618;10.764;2023-08-12T07:15:31;3.55;;;1.83;;
57247;SDS011;55809;46.618;10.764;2023-08-12T07:17:58;3.95;;;2.00;;
57247;SDS011;55809;46.618;10.764;2023-08-12T07:20:26;4.45;;;1.85;;
57247;SDS011;55809;46.618;10.764;2023-08-12T07:22:54;4.03;;;2.22;;
57247;SDS011;55809;46.618;10.764;2023-08-12T07:25:22;3.42;;;1.70;;
57247;SDS011;55809;46.618;10.764;2023-08-12T07:27:49;3.25;;;1.80;;
57247;SDS011;55809;46.618;10.764;2023-08-12T07:30:16;4.97;;;2.13;;
57247;SDS011;55809;46.618;10.764;2023-08-12T07:32:43;3.38;;;1.92;;
57247;SDS011;55809;46.618;10.764;2023-08-12T07:35:10;5.05;;;2.35;;
57247;SDS011;55809;46.618;10.764;2023-08-12T07:37:38;2.40;;;1.63;;
57247;SDS011;55809;46.618;10.764;2023-08-12T07:40:07;4.40;;;2.42;;
57247;SDS011;55809;46.618;10.764;2023-08-12T07:45:02;3.22;;;1.95;;
57247;SDS011;55809;46.618;10.764;2023-08-12T07:47:30;3.50;;;2.10;;
57247;SDS011;55809;46.618;10.764;2023-08-12T07:49:57;3.30;;;1.83;;
57247;SDS011;55809;46.618;10.764;2023-08-12T07:52:24;5.00;;;2.20;;
57247;SDS011;55809;46.618;10.764;2023-08-12T07:54:51;3.92;;;2.20;;
57247;SDS011;55809;46.618;10.764;2023-08-12T07:57:20;3.30;;;2.00;;
57247;SDS011;55809;46.618;10.764;2023-08-12T07:59:49;4.85;;;2.25;;
57247;SDS011;55809;46.618;10.764;2023-08-12T08:02:19;4.05;;;2.15;;
57247;SDS011;55809;46.618;10.764;2023-08-12T08:04:46;4.03;;;1.98;;
57247;SDS011;55809;46.618;10.764;2023-08-12T08:07:14;4.25;;;2.40;;
57247;SDS011;55809;46.618;10.764;2023-08-12T08:09:41;4.85;;;2.22;;
57247;SDS011;55809;46.618;10.764;2023-08-12T08:12:09;4.85;;;2.40;;
57247;SDS011;55809;46.618;10.764;2023-08-12T08:14:37;4.97;;;2.80;;
57247;SDS011;55809;46.618;10.764;2023-08-12T08:17:04;4.60;;;2.60;;
57247;SDS011;55809;46.618;10.764;2023-08-12T08:19:32;3.78;;;2.15;;
57247;SDS011;55809;46.618;10.764;2023-08-12T08:21:59;4.55;;;2.45;;
57247;SDS011;55809;46.618;10.764;2023-08-12T08:24:28;4.35;;;2.55;;
57247;SDS011;55809;46.618;10.764;2023-08-12T08:26:55;5.00;;;2.80;;
57247;SDS011;55809;46.618;10.764;2023-08-12T08:29:22;3.75;;;2.00;;
57247;SDS011;55809;46.618;10.764;2023-08-12T08:31:51;4.15;;;2.22;;
57247;SDS011;55809;46.618;10.764;2023-08-12T08:34:18;3.75;;;2.20;;
57247;SDS011;55809;46.618;10.764;2023-08-12T08:36:45;3.65;;;2.33;;
57247;SDS011;55809;46.618;10.764;2023-08-12T08:39:12;4.60;;;2.53;;
57247;SDS011;55809;46.618;10.764;2023-08-12T08:41:39;5.43;;;2.80;;
57247;SDS011;55809;46.618;10.764;2023-08-12T08:44:09;5.22;;;2.75;;
57247;SDS011;55809;46.618;10.764;2023-08-12T08:46:38;4.35;;;2.55;;
57247;SDS011;55809;46.618;10.764;2023-08-12T08:49:07;4.85;;;2.70;;
57247;SDS011;55809;46.618;10.764;2023-08-12T08:51:36;5.53;;;2.80;;
57247;SDS011;55809;46.618;10.764;2023-08-12T08:54:04;5.25;;;2.90;;
57247;SDS011;55809;46.618;10.764;2023-08-12T08:56:32;4.70;;;2.47;;
57247;SDS011;55809;46.618;10.764;2023-08-12T08:58:59;4.43;;;2.50;;
57247;SDS011;55809;46.618;10.764;2023-08-12T09:01:26;4.50;;;2.60;;
57247;SDS011;55809;46.618;10.764;2023-08-12T09:03:55;5.00;;;3.00;;
57247;SDS011;55809;46.618;10.764;2023-08-12T09:06:25;4.50;;;2.78;;
57247;SDS011;55809;46.618;10.764;2023-08-12T09:08:52;3.55;;;2.50;;
57247;SDS011;55809;46.618;10.764;2023-08-12T09:11:20;5.25;;;2.72;;
57247;SDS011;55809;46.618;10.764;2023-08-12T09:13:47;4.18;;;2.53;;
57247;SDS011;55809;46.618;10.764;2023-08-12T09:16:14;5.63;;;2.70;;
57247;SDS011;55809;46.618;10.764;2023-08-12T09:18:42;5.38;;;2.83;;
57247;SDS011;55809;46.618;10.764;2023-08-12T09:21:09;6.28;;;2.90;;
57247;SDS011;55809;46.618;10.764;2023-08-12T09:23:38;3.97;;;2.40;;
57247;SDS011;55809;46.618;10.764;2023-08-12T09:26:13;4.45;;;2.35;;
57247;SDS011;55809;46.618;10.764;2023-08-12T09:28:42;5.18;;;2.83;;
57247;SDS011;55809;46.618;10.764;2023-08-12T09:31:11;3.97;;;2.63;;
57247;SDS011;55809;46.618;10.764;2023-08-12T09:33:48;5.57;;;3.10;;
57247;SDS011;55809;46.618;10.764;2023-08-12T09:36:15;4.97;;;2.65;;
57247;SDS011;55809;46.618;10.764;2023-08-12T09:38:44;4.15;;;2.40;;
57247;SDS011;55809;46.618;10.764;2023-08-12T09:41:12;4.90;;;2.97;;
57247;SDS011;55809;46.618;10.764;2023-08-12T09:43:40;3.70;;;2.38;;
57247;SDS011;55809;46.618;10.764;2023-08-12T09:46:10;4.07;;;2.22;;
57247;SDS011;55809;46.618;10.764;2023-08-12T09:48:38;4.25;;;2.30;;
57247;SDS011;55809;46.618;10.764;2023-08-12T09:51:05;3.95;;;2.70;;
57247;SDS011;55809;46.618;10.764;2023-08-12T09:53:33;4.30;;;2.40;;
57247;SDS011;55809;46.618;10.764;2023-08-12T09:56:04;6.60;;;2.80;;
57247;SDS011;55809;46.618;10.764;2023-08-12T09:58:33;4.15;;;2.50;;
57247;SDS011;55809;46.618;10.764;2023-08-12T10:01:02;4.13;;;2.47;;
57247;SDS011;55809;46.618;10.764;2023-08-12T10:03:29;4.32;;;2.63;;
57247;SDS011;55809;46.618;10.764;2023-08-12T10:05:58;4.38;;;2.30;;
57247;SDS011;55809;46.618;10.764;2023-08-12T10:08:26;4.15;;;2.58;;
57247;SDS011;55809;46.618;10.764;2023-08-12T10:10:54;4.22;;;2.38;;
57247;SDS011;55809;46.618;10.764;2023-08-12T10:13:22;4.18;;;2.25;;
57247;SDS011;55809;46.618;10.764;2023-08-12T10:15:50;4.45;;;2.30;;
57247;SDS011;55809;46.618;10.764;2023-08-12T10:18:18;4.15;;;2.40;;
57247;SDS011;55809;46.618;10.764;2023-08-12T10:20:46;4.40;;;2.28;;
57247;SDS011;55809;46.618;10.764;2023-08-12T10:23:15;3.78;;;2.28;;
57247;SDS011;55809;46.618;10.764;2023-08-12T10:25:43;7.55;;;2.40;;
57247;SDS011;55809;46.618;10.764;2023-08-12T10:28:11;4.63;;;2.45;;
57247;SDS011;55809;46.618;10.764;2023-08-12T10:30:41;4.60;;;2.83;;
57247;SDS011;55809;46.618;10.764;2023-08-12T10:33:08;4.37;;;2.60;;
57247;SDS011;55809;46.618;10.764;2023-08-12T10:35:43;3.70;;;2.42;;
57247;SDS011;55809;46.618;10.764;2023-08-12T10:38:11;3.90;;;2.20;;
57247;SDS011;55809;46.618;10.764;2023-08-12T10:40:40;3.20;;;1.98;;
57247;SDS011;55809;46.618;10.764;2023-08-12T10:43:08;3.42;;;2.08;;
57247;SDS011;55809;46.618;10.764;2023-08-12T10:45:43;4.93;;;2.40;;
57247;SDS011;55809;46.618;10.764;2023-08-12T10:48:16;3.83;;;2.35;;
57247;SDS011;55809;46.618;10.764;2023-08-12T10:50:49;5.82;;;2.60;;
57247;SDS011;55809;46.618;10.764;2023-08-12T10:53:22;3.95;;;2.45;;
57247;SDS011;55809;46.618;10.764;2023-08-12T10:55:54;4.43;;;2.03;;
57247;SDS011;55809;46.618;10.764;2023-08-12T10:58:26;6.45;;;2.50;;
57247;SDS011;55809;46.618;10.764;2023-08-12T11:00:56;4.38;;;2.38;;
57247;SDS011;55809;46.618;10.764;2023-08-12T11:03:23;4.35;;;2.45;;
57247;SDS011;55809;46.618;10.764;2023-08-12T11:05:51;3.47;;;2.20;;
57247;SDS011;55809;46.618;10.764;2023-08-12T11:08:25;2.65;;;1.80;;
57247;SDS011;55809;46.618;10.764;2023-08-12T11:10:54;3.85;;;2.42;;
57247;SDS011;55809;46.618;10.764;2023-08-12T11:13:26;5.10;;;2.47;;
57247;SDS011;55809;46.618;10.764;2023-08-12T11:16:05;3.97;;;2.25;;
57247;SDS011;55809;46.618;10.764;2023-08-12T11:18:32;4.10;;;2.33;;
57247;SDS011;55809;46.618;10.764;2023-08-12T11:20:59;4.75;;;2.38;;
57247;SDS011;55809;46.618;10.764;2023-08-12T11:23:28;7.78;;;2.30;;
57247;SDS011;55809;46.618;10.764;2023-08-12T11:25:55;4.22;;;2.03;;
57247;SDS011;55809;46.618;10.764;2023-08-12T11:28:25;4.18;;;2.17;;
57247;SDS011;55809;46.618;10.764;2023-08-12T11:30:52;4.85;;;2.60;;
57247;SDS011;55809;46.618;10.764;2023-08-12T11:33:20;3.95;;;2.25;;
57247;SDS011;55809;46.618;10.764;2023-08-12T11:35:47;4.28;;;2.42;;
57247;SDS011;55809;46.618;10.764;2023-08-12T11:38:14;4.38;;;2.67;;
57247;SDS011;55809;46.618;10.764;2023-08-12T11:40:42;4.20;;;2.45;;
57247;SDS011;55809;46.618;10.764;2023-08-12T11:43:09;4.15;;;2.55;;
57247;SDS011;55809;46.618;10.764;2023-08-12T11:45:36;5.68;;;2.67;;
57247;SDS011;55809;46.618;10.764;2023-08-12T11:48:08;4.32;;;2.53;;
57247;SDS011;55809;46.618;10.764;2023-08-12T11:50:37;3.45;;;2.42;;
57247;SDS011;55809;46.618;10.764;2023-08-12T11:53:05;4.45;;;2.63;;
57247;SDS011;55809;46.618;10.764;2023-08-12T11:55:33;3.90;;;2.42;;
57247;SDS011;55809;46.618;10.764;2023-08-12T11:58:00;6.22;;;2.75;;
57247;SDS011;55809;46.618;10.764;2023-08-12T12:00:27;5.13;;;3.38;;
57247;SDS011;55809;46.618;10.764;2023-08-12T12:02:55;4.07;;;2.60;;
57247;SDS011;55809;46.618;10.764;2023-08-12T12:05:23;4.05;;;2.65;;
57247;SDS011;55809;46.618;10.764;2023-08-12T12:10:25;4.85;;;2.78;;
57247;SDS011;55809;46.618;10.764;2023-08-12T12:12:54;4.97;;;2.63;;
57247;SDS011;55809;46.618;10.764;2023-08-12T12:15:21;5.25;;;2.58;;
57247;SDS011;55809;46.618;10.764;2023-08-12T12:17:49;3.45;;;2.28;;
57247;SDS011;55809;46.618;10.764;2023-08-12T12:20:16;4.57;;;2.35;;
57247;SDS011;55809;46.618;10.764;2023-08-12T12:22:44;4.00;;;2.45;;
57247;SDS011;55809;46.618;10.764;2023-08-12T12:25:14;4.15;;;2.45;;
57247;SDS011;55809;46.618;10.764;2023-08-12T12:27:44;4.45;;;2.35;;
57247;SDS011;55809;46.618;10.764;2023-08-12T12:30:13;5.15;;;2.45;;
57247;SDS011;55809;46.618;10.764;2023-08-12T12:32:41;4.35;;;2.58;;
57247;SDS011;55809;46.618;10.764;2023-08-12T12:35:08;4.75;;;2.38;;
57247;SDS011;55809;46.618;10.764;2023-08-12T12:37:34;5.13;;;2.55;;
57247;SDS011;55809;46.618;10.764;2023-08-12T12:40:01;4.68;;;2.50;;
57247;SDS011;55809;46.618;10.764;2023-08-12T12:42:30;4.40;;;2.28;;
57247;SDS011;55809;46.618;10.764;2023-08-12T12:44:57;4.80;;;2.38;;
57247;SDS011;55809;46.618;10.764;2023-08-12T12:47:24;4.97;;;2.47;;
57247;SDS011;55809;46.618;10.764;2023-08-12T12:49:51;4.43;;;2.58;;
57247;SDS011;55809;46.618;10.764;2023-08-12T12:52:18;5.53;;;3.00;;
57247;SDS011;55809;46.618;10.764;2023-08-12T12:54:45;4.75;;;2.75;;
57247;SDS011;55809;46.618;10.764;2023-08-12T12:57:12;5.90;;;3.17;;
57247;SDS011;55809;46.618;10.764;2023-08-12T12:59:41;4.65;;;2.58;;
57247;SDS011;55809;46.618;10.764;2023-08-12T13:02:08;4.70;;;2.75;;
57247;SDS011;55809;46.618;10.764;2023-08-12T13:04:35;5.85;;;2.83;;
57247;SDS011;55809;46.618;10.764;2023-08-12T13:07:02;4.03;;;2.60;;
57247;SDS011;55809;46.618;10.764;2023-08-12T13:09:29;5.97;;;2.90;;
57247;SDS011;55809;46.618;10.764;2023-08-12T13:11:57;4.53;;;2.38;;
57247;SDS011;55809;46.618;10.764;2023-08-12T13:14:24;4.95;;;2.50;;
57247;SDS011;55809;46.618;10.764;2023-08-12T13:16:53;3.88;;;2.45;;
57247;SDS011;55809;46.618;10.764;2023-08-12T13:19:20;4.68;;;2.53;;
57247;SDS011;55809;46.618;10.764;2023-08-12T13:21:47;4.30;;;2.45;;
57247;SDS011;55809;46.618;10.764;2023-08-12T13:24:14;3.95;;;2.58;;
57247;SDS011;55809;46.618;10.764;2023-08-12T13:26:41;5.45;;;2.63;;
57247;SDS011;55809;46.618;10.764;2023-08-12T13:29:08;7.00;;;2.85;;
57247;SDS011;55809;46.618;10.764;2023-08-12T13:31:35;4.88;;;2.60;;
57247;SDS011;55809;46.618;10.764;2023-08-12T13:34:04;4.00;;;2.42;;
57247;SDS011;55809;46.618;10.764;2023-08-12T13:36:31;5.97;;;3.00;;
57247;SDS011;55809;46.618;10.764;2023-08-12T13:38:58;5.10;;;2.72;;
57247;SDS011;55809;46.618;10.764;2023-08-12T13:41:25;5.32;;;2.55;;
57247;SDS011;55809;46.618;10.764;2023-08-12T13:43:52;4.57;;;2.40;;
57247;SDS011;55809;46.618;10.764;2023-08-12T13:46:19;4.40;;;2.53;;
57247;SDS011;55809;46.618;10.764;2023-08-12T13:48:46;5.07;;;2.85;;
57247;SDS011;55809;46.618;10.764;2023-08-12T13:51:14;4.22;;;2.35;;
57247;SDS011;55809;46.618;10.764;2023-08-12T13:53:41;7.22;;;2.75;;
57247;SDS011;55809;46.618;10.764;2023-08-12T13:56:08;5.53;;;2.67;;
57247;SDS011;55809;46.618;10.764;2023-08-12T13:58:35;5.95;;;2.72;;
57247;SDS011;55809;46.618;10.764;2023-08-12T14:01:02;6.63;;;2.85;;
57247;SDS011;55809;46.618;10.764;2023-08-12T14:03:29;5.57;;;2.88;;
57247;SDS011;55809;46.618;10.764;2023-08-12T14:05:56;5.38;;;2.92;;
57247;SDS011;55809;46.618;10.764;2023-08-12T14:08:25;5.32;;;2.70;;
57247;SDS011;55809;46.618;10.764;2023-08-12T14:10:52;4.68;;;2.70;;
57247;SDS011;55809;46.618;10.764;2023-08-12T14:13:19;3.83;;;2.33;;
57247;SDS011;55809;46.618;10.764;2023-08-12T14:15:46;5.03;;;3.00;;
57247;SDS011;55809;46.618;10.764;2023-08-12T14:18:13;4.93;;;2.60;;
57247;SDS011;55809;46.618;10.764;2023-08-12T14:20:40;5.30;;;3.15;;
57247;SDS011;55809;46.618;10.764;2023-08-12T14:23:07;5.22;;;3.10;;
57247;SDS011;55809;46.618;10.764;2023-08-12T14:25:36;6.35;;;2.85;;
57247;SDS011;55809;46.618;10.764;2023-08-12T14:28:04;5.50;;;3.00;;
57247;SDS011;55809;46.618;10.764;2023-08-12T14:30:31;4.80;;;2.83;;
57247;SDS011;55809;46.618;10.764;2023-08-12T14:32:58;5.55;;;2.72;;
57247;SDS011;55809;46.618;10.764;2023-08-12T14:35:25;4.88;;;2.75;;
57247;SDS011;55809;46.618;10.764;2023-08-12T14:37:52;5.22;;;2.83;;
57247;SDS011;55809;46.618;10.764;2023-08-12T14:40:19;5.80;;;2.75;;
57247;SDS011;55809;46.618;10.764;2023-08-12T14:42:48;4.72;;;2.55;;